createdAt,value
2023-05-01T00:00:46.817Z,96.22
2023-05-01T00:01:46.820Z,96.33
2023-05-01T00:02:46.924Z,96.53
2023-05-01T00:03:47.110Z,96.75
2023-05-01T00:04:46.882Z,97.06
2023-05-01T00:05:46.840Z,97.38
2023-05-01T00:06:47.107Z,97.42
2023-05-01T00:07:46.731Z,97.84
2023-05-01T00:08:46.724Z,97.94
2023-05-01T00:09:46.710Z,97.21
2023-05-01T00:10:46.700Z,97.84
2023-05-01T00:11:46.735Z,98.16
2023-05-01T00:12:46.679Z,97.11
2023-05-01T00:13:46.678Z,95.10
2023-05-01T00:14:46.676Z,94.12
2023-05-01T00:15:46.665Z,93.49
2023-05-01T00:16:46.762Z,93.07
2023-05-01T00:17:46.691Z,92.61
2023-05-01T00:18:46.652Z,93.76
2023-05-01T00:19:46.616Z,95.02
2023-05-01T00:20:46.612Z,95.70
2023-05-01T00:21:46.600Z,96.12
2023-05-01T00:22:46.602Z,96.43
2023-05-01T00:23:46.617Z,97.11
2023-05-01T00:24:46.573Z,97.63
2023-05-01T00:25:46.568Z,97.74
2023-05-01T00:26:46.628Z,97.53
2023-05-01T00:27:46.548Z,96.89
2023-05-01T00:28:46.547Z,97.31
2023-05-01T00:29:46.553Z,97.42
2023-05-01T00:30:46.515Z,97.42
2023-05-01T00:31:46.579Z,97.53
2023-05-01T00:32:46.556Z,97.63
2023-05-01T00:33:46.490Z,97.48
2023-05-01T00:34:46.489Z,97.48
2023-05-01T00:35:46.500Z,97.48
2023-05-01T00:36:48.114Z,97.90
2023-05-01T00:37:46.438Z,97.80
2023-05-01T00:38:46.446Z,97.38
2023-05-01T00:39:46.420Z,96.53
2023-05-01T00:40:46.409Z,95.28
2023-05-01T00:41:46.439Z,94.60
2023-05-01T00:42:46.388Z,95.86
2023-05-01T00:43:46.386Z,95.02
2023-05-01T00:44:46.368Z,94.24
2023-05-01T00:45:46.477Z,93.19
2023-05-01T00:46:46.360Z,92.57
2023-05-01T00:47:46.417Z,93.82
2023-05-01T00:48:46.335Z,94.67
2023-05-01T00:49:46.331Z,93.13
2023-05-01T00:50:46.317Z,92.57
2023-05-01T00:51:46.308Z,92.46
2023-05-01T00:52:46.300Z,94.67
2023-05-01T00:53:46.299Z,95.44
2023-05-01T00:54:46.270Z,95.86
2023-05-01T00:55:46.267Z,96.28
2023-05-01T00:56:46.263Z,96.39
2023-05-01T00:57:46.260Z,96.59
2023-05-01T00:58:46.250Z,96.59
2023-05-01T00:59:46.251Z,96.70
2023-05-01T01:00:46.276Z,96.91
2023-05-01T01:01:46.358Z,96.39
2023-05-01T01:02:46.238Z,95.13
2023-05-01T01:03:46.189Z,94.18
2023-05-01T01:04:46.237Z,93.40
2023-05-01T01:05:46.196Z,92.99
2023-05-01T01:06:46.225Z,92.14
2023-05-01T01:07:46.153Z,91.58
2023-05-01T01:08:46.141Z,91.05
2023-05-01T01:09:46.130Z,90.64
2023-05-01T01:10:46.122Z,91.53
2023-05-01T01:11:46.151Z,93.15
2023-05-01T01:12:46.106Z,92.63
2023-05-01T01:13:46.089Z,94.45
2023-05-01T01:14:46.096Z,94.77
2023-05-01T01:15:46.125Z,95.40
2023-05-01T01:16:46.099Z,94.24
2023-05-01T01:17:46.081Z,95.08
2023-05-01T01:18:46.041Z,95.40
2023-05-01T01:19:46.017Z,95.61
2023-05-01T01:20:46.017Z,95.19
2023-05-01T01:21:45.993Z,94.67
2023-05-01T01:22:45.997Z,94.56
2023-05-01T01:23:46.017Z,94.24
2023-05-01T01:24:45.976Z,94.45
2023-05-01T01:25:45.961Z,95.08
2023-05-01T01:26:45.952Z,95.40
2023-05-01T01:27:45.941Z,95.29
2023-05-01T01:28:45.932Z,95.61
2023-05-01T01:29:45.957Z,95.61
2023-05-01T01:30:45.987Z,95.92
2023-05-01T01:31:45.985Z,96.13
2023-05-01T01:32:45.936Z,96.24
2023-05-01T01:33:45.879Z,96.45
2023-05-01T01:34:45.888Z,95.72
2023-05-01T01:35:45.897Z,95.19
2023-05-01T01:36:45.862Z,95.61
2023-05-01T01:37:45.857Z,96.34
2023-05-01T01:38:45.842Z,94.77
2023-05-01T01:39:45.855Z,96.66
2023-05-01T01:40:45.833Z,97.71
2023-05-01T01:41:45.833Z,97.81
2023-05-01T01:42:45.802Z,98.08
2023-05-01T01:43:45.807Z,97.14
2023-05-01T01:44:45.784Z,96.09
2023-05-01T01:45:45.797Z,97.45
2023-05-01T01:46:45.905Z,98.29
2023-05-01T01:47:45.824Z,97.35
2023-05-01T01:48:45.759Z,97.87
2023-05-01T01:49:45.737Z,98.50
2023-05-01T01:50:45.755Z,97.14
2023-05-01T01:51:45.726Z,97.45
2023-05-01T01:52:45.722Z,98.29
2023-05-01T01:53:45.737Z,97.66
2023-05-01T01:54:45.715Z,97.56
2023-05-01T01:55:45.665Z,98.39
2023-05-01T01:56:45.658Z,98.46
2023-05-01T01:57:45.670Z,98.67
2023-05-01T01:58:45.648Z,98.77
2023-05-01T01:59:45.653Z,98.77
2023-05-01T02:00:45.628Z,98.77
2023-05-01T02:01:45.657Z,98.14
2023-05-01T02:02:45.657Z,98.04
2023-05-01T02:03:46.043Z,97.52
2023-05-01T02:04:45.588Z,97.83
2023-05-01T02:05:45.710Z,97.03
2023-05-01T02:06:45.718Z,96.19
2023-05-01T02:07:45.551Z,94.93
2023-05-01T02:08:45.536Z,94.89
2023-05-01T02:09:45.528Z,94.68
2023-05-01T02:10:45.523Z,94.16
2023-05-01T02:11:45.556Z,94.68
2023-05-01T02:12:45.495Z,96.04
2023-05-01T02:13:45.496Z,96.25
2023-05-01T02:14:45.488Z,96.99
2023-05-01T02:15:45.494Z,97.98
2023-05-01T02:16:45.470Z,98.19
2023-05-01T02:17:45.512Z,98.77
2023-05-01T02:18:45.453Z,98.77
2023-05-01T02:19:45.441Z,98.77
2023-05-01T02:20:45.442Z,98.46
2023-05-01T02:21:45.418Z,98.14
2023-05-01T02:22:45.418Z,97.83
2023-05-01T02:23:45.435Z,97.52
2023-05-01T02:24:45.391Z,97.20
2023-05-01T02:25:45.389Z,97.20
2023-05-01T02:26:45.381Z,96.36
2023-05-01T02:27:45.361Z,95.84
2023-05-01T02:28:45.308Z,95.00
2023-05-01T02:29:45.333Z,94.58
2023-05-01T02:30:45.347Z,94.68
2023-05-01T02:31:45.370Z,96.04
2023-05-01T02:32:45.327Z,96.89
2023-05-01T02:33:45.316Z,96.57
2023-05-01T02:34:45.300Z,96.67
2023-05-01T02:35:45.296Z,97.20
2023-05-01T02:36:45.273Z,97.83
2023-05-01T02:37:45.263Z,98.77
2023-05-01T02:38:45.286Z,98.25
2023-05-01T02:39:45.230Z,97.30
2023-05-01T02:40:45.223Z,98.04
2023-05-01T02:41:45.220Z,98.67
2023-05-01T02:42:45.160Z,98.77
2023-05-01T02:43:45.142Z,98.67
2023-05-01T02:44:45.131Z,98.56
2023-05-01T02:45:45.237Z,98.35
2023-05-01T02:46:45.160Z,98.35
2023-05-01T02:47:45.181Z,98.35
2023-05-01T02:48:45.094Z,98.67
2023-05-01T02:49:45.088Z,98.56
2023-05-01T02:50:45.074Z,98.56
2023-05-01T02:51:45.073Z,97.62
2023-05-01T02:52:45.051Z,96.36
2023-05-01T02:53:45.075Z,95.00
2023-05-01T02:54:45.044Z,93.95
2023-05-01T02:55:45.038Z,93.53
2023-05-01T02:56:45.025Z,94.12
2023-05-01T02:57:45.020Z,95.17
2023-05-01T02:58:45.008Z,95.17
2023-05-01T02:59:45.083Z,96.78
2023-05-01T03:00:45.023Z,98.14
2023-05-01T03:01:45.123Z,98.77
2023-05-01T03:02:45.004Z,98.14
2023-05-01T03:03:45.000Z,98.25
2023-05-01T03:04:45.047Z,98.88
2023-05-01T03:05:44.964Z,98.77
2023-05-01T03:06:45.163Z,99.51
2023-05-01T03:07:44.925Z,97.93
2023-05-01T03:08:44.903Z,96.78
2023-05-01T03:09:44.905Z,98.14
2023-05-01T03:10:44.887Z,97.09
2023-05-01T03:11:44.903Z,95.94
2023-05-01T03:12:44.863Z,94.47
2023-05-01T03:13:44.864Z,93.43
2023-05-01T03:14:44.841Z,92.76
2023-05-01T03:15:44.835Z,92.33
2023-05-01T03:16:44.871Z,94.22
2023-05-01T03:17:44.895Z,96.31
2023-05-01T03:18:44.802Z,97.26
2023-05-01T03:19:44.799Z,98.10
2023-05-01T03:20:44.778Z,98.52
2023-05-01T03:21:44.776Z,98.67
2023-05-01T03:22:44.773Z,98.14
2023-05-01T03:23:44.768Z,98.98
2023-05-01T03:24:44.745Z,98.56
2023-05-01T03:25:44.738Z,99.19
2023-05-01T03:26:44.716Z,99.88
2023-05-01T03:27:44.720Z,99.88
2023-05-01T03:28:44.698Z,99.77
2023-05-01T03:29:44.710Z,98.83
2023-05-01T03:30:44.677Z,99.04
2023-05-01T03:31:44.767Z,99.25
2023-05-01T03:32:44.773Z,99.04
2023-05-01T03:33:44.657Z,99.25
2023-05-01T03:34:44.656Z,99.46
2023-05-01T03:35:44.743Z,99.04
2023-05-01T03:36:44.630Z,99.25
2023-05-01T03:37:44.622Z,99.57
2023-05-01T03:38:44.619Z,99.25
2023-05-01T03:39:44.604Z,99.25
2023-05-01T03:40:44.582Z,99.25
2023-05-01T03:41:44.598Z,99.57
2023-05-01T03:42:44.567Z,99.73
2023-05-01T03:43:44.575Z,99.41
2023-05-01T03:44:44.558Z,99.10
2023-05-01T03:45:44.987Z,98.89
2023-05-01T03:46:44.692Z,98.85
2023-05-01T03:47:44.570Z,98.74
2023-05-01T03:48:44.520Z,98.74
2023-05-01T03:49:44.502Z,98.43
2023-05-01T03:50:44.492Z,96.65
2023-05-01T03:51:44.480Z,95.70
2023-05-01T03:52:44.463Z,94.24
2023-05-01T03:53:44.473Z,93.61
2023-05-01T03:54:44.440Z,92.73
2023-05-01T03:55:44.434Z,92.42
2023-05-01T03:56:44.434Z,92.21
2023-05-01T03:57:44.412Z,92.00
2023-05-01T03:58:44.403Z,91.89
2023-05-01T03:59:44.417Z,91.89
2023-05-01T04:00:44.394Z,92.69
2023-05-01T04:01:44.463Z,95.09
2023-05-01T04:02:44.567Z,95.93
2023-05-01T04:03:44.507Z,94.62
2023-05-01T04:04:44.347Z,93.46
2023-05-01T04:05:44.407Z,94.51
2023-05-01T04:06:44.385Z,95.45
2023-05-01T04:07:44.313Z,96.19
2023-05-01T04:08:44.295Z,96.50
2023-05-01T04:09:44.310Z,96.61
2023-05-01T04:10:44.285Z,96.50
2023-05-01T04:11:44.322Z,95.56
2023-05-01T04:12:44.290Z,96.29
2023-05-01T04:13:44.274Z,96.81
2023-05-01T04:14:44.261Z,96.61
2023-05-01T04:15:44.319Z,96.45
2023-05-01T04:16:44.237Z,96.98
2023-05-01T04:17:44.312Z,96.66
2023-05-01T04:18:44.215Z,96.56
2023-05-01T04:19:44.227Z,95.37
2023-05-01T04:20:44.196Z,96.83
2023-05-01T04:21:44.202Z,97.04
2023-05-01T04:22:44.177Z,97.98
2023-05-01T04:23:44.202Z,97.25
2023-05-01T04:24:44.161Z,97.14
2023-05-01T04:25:44.151Z,96.83
2023-05-01T04:26:44.141Z,96.89
2023-05-01T04:27:44.145Z,96.47
2023-05-01T04:28:44.134Z,96.47
2023-05-01T04:29:44.140Z,96.58
2023-05-01T04:30:44.094Z,96.68
2023-05-01T04:31:44.129Z,96.43
2023-05-01T04:32:44.095Z,96.53
2023-05-01T04:33:44.068Z,96.43
2023-05-01T04:34:44.050Z,96.74
2023-05-01T04:35:44.075Z,96.64
2023-05-01T04:36:44.032Z,95.28
2023-05-01T04:37:44.028Z,95.80
2023-05-01T04:38:44.012Z,95.97
2023-05-01T04:39:44.002Z,95.13
2023-05-01T04:40:43.994Z,95.03
2023-05-01T04:41:44.006Z,93.77
2023-05-01T04:42:43.999Z,93.10
2023-05-01T04:43:43.966Z,94.04
2023-05-01T04:44:43.954Z,92.47
2023-05-01T04:45:43.946Z,90.81
2023-05-01T04:46:43.971Z,91.18
2023-05-01T04:47:43.998Z,91.81
2023-05-01T04:48:43.914Z,91.08
2023-05-01T04:49:43.914Z,90.56
2023-05-01T04:50:43.912Z,92.33
2023-05-01T04:51:43.885Z,93.54
2023-05-01T04:52:43.877Z,93.85
2023-05-01T04:53:43.908Z,91.66
2023-05-01T04:54:43.860Z,91.87
2023-05-01T04:55:43.857Z,90.83
2023-05-01T04:56:43.847Z,92.40
2023-05-01T04:57:43.829Z,92.91
2023-05-01T04:58:43.823Z,91.25
2023-05-01T04:59:43.838Z,90.20
2023-05-01T05:00:43.801Z,91.97
2023-05-01T05:01:43.845Z,89.89
2023-05-01T05:02:43.856Z,92.50
2023-05-01T05:03:44.620Z,90.83
2023-05-01T05:04:43.771Z,91.62
2023-05-01T05:05:43.776Z,91.87
2023-05-01T05:06:43.776Z,91.20
2023-05-01T05:07:43.734Z,90.58
2023-05-01T05:08:43.720Z,90.68
2023-05-01T05:09:43.708Z,89.12
2023-05-01T05:10:43.700Z,88.49
2023-05-01T05:11:43.749Z,89.01
2023-05-01T05:12:43.672Z,89.01
2023-05-01T05:13:43.667Z,88.29
2023-05-01T05:14:43.664Z,87.41
2023-05-01T05:15:43.647Z,88.35
2023-05-01T05:16:43.686Z,88.04
2023-05-01T05:17:43.666Z,87.06
2023-05-01T05:18:43.612Z,87.27
2023-05-01T05:19:43.612Z,86.02
2023-05-01T05:20:43.594Z,86.40
2023-05-01T05:21:43.606Z,85.46
2023-05-01T05:22:43.570Z,86.19
2023-05-01T05:23:43.596Z,86.04
2023-05-01T05:24:43.551Z,85.83
2023-05-01T05:25:43.547Z,86.46
2023-05-01T05:26:43.547Z,85.52
2023-05-01T05:27:43.543Z,85.42
2023-05-01T05:28:43.517Z,84.80
2023-05-01T05:29:43.527Z,86.52
2023-05-01T05:30:43.495Z,85.49
2023-05-01T05:31:43.593Z,85.49
2023-05-01T05:32:43.540Z,86.11
2023-05-01T05:33:43.485Z,86.52
2023-05-01T05:34:43.461Z,86.32
2023-05-01T05:35:43.486Z,86.52
2023-05-01T05:36:43.440Z,86.42
2023-05-01T05:37:45.365Z,87.25
2023-05-01T05:38:43.428Z,86.32
2023-05-01T05:39:43.424Z,88.09
2023-05-01T05:40:43.398Z,87.98
2023-05-01T05:41:43.419Z,87.98
2023-05-01T05:42:43.383Z,88.29
2023-05-01T05:43:43.377Z,87.56
2023-05-01T05:44:43.363Z,87.88
2023-05-01T05:45:43.369Z,88.75
2023-05-01T05:46:43.336Z,88.02
2023-05-01T05:47:43.388Z,87.92
2023-05-01T05:48:43.336Z,87.92
2023-05-01T05:49:43.316Z,88.02
2023-05-01T05:50:43.336Z,90.10
2023-05-01T05:51:43.288Z,89.06
2023-05-01T05:52:43.276Z,88.75
2023-05-01T05:53:43.289Z,88.64
2023-05-01T05:54:43.261Z,88.85
2023-05-01T05:55:43.253Z,89.02
2023-05-01T05:56:43.231Z,89.75
2023-05-01T05:57:43.222Z,88.29
2023-05-01T05:58:43.215Z,89.23
2023-05-01T05:59:43.338Z,88.09
2023-05-01T06:00:43.204Z,90.16
2023-05-01T06:01:43.194Z,91.00
2023-05-01T06:02:43.280Z,89.64
2023-05-01T06:03:43.236Z,88.50
2023-05-01T06:04:43.159Z,89.39
2023-05-01T06:05:43.245Z,90.33
2023-05-01T06:06:43.228Z,90.33
2023-05-01T06:07:43.144Z,89.39
2023-05-01T06:08:43.122Z,89.70
2023-05-01T06:09:43.120Z,90.33
2023-05-01T06:10:43.110Z,90.33
2023-05-01T06:11:43.158Z,90.12
2023-05-01T06:12:44.826Z,90.33
2023-05-01T06:13:44.084Z,89.39
2023-05-01T06:14:43.073Z,89.29
2023-05-01T06:15:43.080Z,88.67
2023-05-01T06:16:43.050Z,88.46
2023-05-01T06:17:43.096Z,88.15
2023-05-01T06:18:44.503Z,88.25
2023-05-01T06:19:43.020Z,88.15
2023-05-01T06:20:43.018Z,87.84
2023-05-01T06:21:43.001Z,87.52
2023-05-01T06:22:43.000Z,87.38
2023-05-01T06:23:43.779Z,87.27
2023-05-01T06:24:42.981Z,89.36
2023-05-01T06:25:42.979Z,91.12
2023-05-01T06:26:42.951Z,89.15
2023-05-01T06:27:42.970Z,88.94
2023-05-01T06:28:42.929Z,89.77
2023-05-01T06:29:42.932Z,88.73
2023-05-01T06:30:42.905Z,88.42
2023-05-01T06:31:42.930Z,87.90
2023-05-01T06:32:42.954Z,88.73
2023-05-01T06:33:42.876Z,88.00
2023-05-01T06:34:42.863Z,90.08
2023-05-01T06:35:42.887Z,88.59
2023-05-01T06:36:42.840Z,88.69
2023-05-01T06:37:42.827Z,88.90
2023-05-01T06:38:42.819Z,89.52
2023-05-01T06:39:42.811Z,88.07
2023-05-01T06:40:42.825Z,88.48
2023-05-01T06:41:42.820Z,89.31
2023-05-01T06:42:42.776Z,87.96
2023-05-01T06:43:42.776Z,87.45
2023-05-01T06:44:42.778Z,87.76
2023-05-01T06:45:42.751Z,87.55
2023-05-01T06:46:42.794Z,87.86
2023-05-01T06:47:42.769Z,88.90
2023-05-01T06:48:42.717Z,88.07
2023-05-01T06:49:42.715Z,87.55
2023-05-01T06:50:42.710Z,87.55
2023-05-01T06:51:42.690Z,87.24
2023-05-01T06:52:42.686Z,87.76
2023-05-01T06:53:42.716Z,88.90
2023-05-01T06:54:42.663Z,87.96
2023-05-01T06:55:42.653Z,87.86
2023-05-01T06:56:42.646Z,87.34
2023-05-01T06:57:42.639Z,88.07
2023-05-01T06:58:42.630Z,89.11
2023-05-01T06:59:42.831Z,90.04
2023-05-01T07:00:42.658Z,89.06
2023-05-01T07:01:42.630Z,87.82
2023-05-01T07:02:42.739Z,90.00
2023-05-01T07:03:42.641Z,88.13
2023-05-01T07:04:42.562Z,88.02
2023-05-01T07:05:42.588Z,87.51
2023-05-01T07:06:42.598Z,87.09
2023-05-01T07:07:50.463Z,87.09
2023-05-01T07:08:43.522Z,86.74
2023-05-01T07:09:42.519Z,86.74
2023-05-01T07:10:42.648Z,87.99
2023-05-01T07:11:42.505Z,88.30
2023-05-01T07:12:42.474Z,89.03
2023-05-01T07:13:42.459Z,90.69
2023-05-01T07:14:42.468Z,89.75
2023-05-01T07:15:42.430Z,88.92
2023-05-01T07:16:42.526Z,87.47
2023-05-01T07:17:42.546Z,89.03
2023-05-01T07:18:42.417Z,88.09
2023-05-01T07:19:42.402Z,86.95
2023-05-01T07:20:42.450Z,86.85
2023-05-01T07:21:42.396Z,86.74
2023-05-01T07:22:42.385Z,87.47
2023-05-01T07:23:42.387Z,87.88
2023-05-01T07:24:42.405Z,88.51
2023-05-01T07:25:42.353Z,89.44
2023-05-01T07:26:42.335Z,89.75
2023-05-01T07:27:42.338Z,89.65
2023-05-01T07:28:42.317Z,88.51
2023-05-01T07:29:42.326Z,88.30
2023-05-01T07:30:42.313Z,88.26
2023-05-01T07:31:42.345Z,88.98
2023-05-01T07:32:42.323Z,89.61
2023-05-01T07:33:42.273Z,89.71
2023-05-01T07:34:42.263Z,90.54
2023-05-01T07:35:42.273Z,89.40
2023-05-01T07:36:42.250Z,88.46
2023-05-01T07:37:42.226Z,87.18
2023-05-01T07:38:42.223Z,87.28
2023-05-01T07:39:42.209Z,90.70
2023-05-01T07:40:42.199Z,89.15
2023-05-01T07:41:42.215Z,87.70
2023-05-01T07:42:42.181Z,87.18
2023-05-01T07:43:42.159Z,86.04
2023-05-01T07:44:42.157Z,86.25
2023-05-01T07:45:42.262Z,86.31
2023-05-01T07:46:42.137Z,86.10
2023-05-01T07:47:42.197Z,86.00
2023-05-01T07:48:42.117Z,87.87
2023-05-01T07:49:42.111Z,87.04
2023-05-01T07:50:42.085Z,86.83
2023-05-01T07:51:42.091Z,86.10
2023-05-01T07:52:42.075Z,86.93
2023-05-01T07:53:42.078Z,87.14
2023-05-01T07:54:42.052Z,87.55
2023-05-01T07:55:42.036Z,86.62
2023-05-01T07:56:42.026Z,87.45
2023-05-01T07:57:42.032Z,86.31
2023-05-01T07:58:42.015Z,87.14
2023-05-01T07:59:42.026Z,88.28
2023-05-01T08:00:41.988Z,87.04
2023-05-01T08:01:41.985Z,86.72
2023-05-01T08:02:42.070Z,87.97
2023-05-01T08:03:42.023Z,89.11
2023-05-01T08:04:42.015Z,87.72
2023-05-01T08:05:41.975Z,88.28
2023-05-01T08:06:41.936Z,87.14
2023-05-01T08:07:41.917Z,88.69
2023-05-01T08:08:41.913Z,87.97
2023-05-01T08:09:41.900Z,87.97
2023-05-01T08:10:41.902Z,88.03
2023-05-01T08:11:41.921Z,88.86
2023-05-01T08:12:41.891Z,87.51
2023-05-01T08:13:41.878Z,87.51
2023-05-01T08:14:41.859Z,87.78
2023-05-01T08:15:41.962Z,87.47
2023-05-01T08:16:41.945Z,87.78
2023-05-01T08:17:41.921Z,86.71
2023-05-01T08:18:41.822Z,86.50
2023-05-01T08:19:41.810Z,87.74
2023-05-01T08:20:41.804Z,86.91
2023-05-01T08:21:41.788Z,88.74
2023-05-01T08:22:41.777Z,86.67
2023-05-01T08:23:41.849Z,86.50
2023-05-01T08:24:41.757Z,86.40
2023-05-01T08:25:41.749Z,86.91
2023-05-01T08:26:41.740Z,86.81
2023-05-01T08:27:41.735Z,87.33
2023-05-01T08:28:41.712Z,87.43
2023-05-01T08:29:41.724Z,87.54
2023-05-01T08:30:41.698Z,87.54
2023-05-01T08:31:41.757Z,87.70
2023-05-01T08:32:41.726Z,88.22
2023-05-01T08:33:41.662Z,87.87
2023-05-01T08:34:41.645Z,87.76
2023-05-01T08:35:41.662Z,87.76
2023-05-01T08:36:41.637Z,88.39
2023-05-01T08:37:41.637Z,87.35
2023-05-01T08:38:41.617Z,86.90
2023-05-01T08:39:41.595Z,87.21
2023-05-01T08:40:41.591Z,86.38
2023-05-01T08:41:41.609Z,86.07
2023-05-01T08:42:41.582Z,87.00
2023-05-01T08:43:41.566Z,86.28
2023-05-01T08:44:41.588Z,85.55
2023-05-01T08:45:41.539Z,86.18
2023-05-01T08:46:41.594Z,85.86
2023-05-01T08:47:42.337Z,86.79
2023-05-01T08:48:41.507Z,85.66
2023-05-01T08:49:41.508Z,87.73
2023-05-01T08:50:41.487Z,87.31
2023-05-01T08:51:41.475Z,86.63
2023-05-01T08:52:41.475Z,87.21
2023-05-01T08:53:41.483Z,86.90
2023-05-01T08:54:41.444Z,87.52
2023-05-01T08:55:41.448Z,87.66
2023-05-01T08:56:41.429Z,87.00
2023-05-01T08:57:41.413Z,86.52
2023-05-01T08:58:41.411Z,87.25
2023-05-01T08:59:41.419Z,87.35
2023-05-01T09:00:41.388Z,87.35
2023-05-01T09:01:41.393Z,87.56
2023-05-01T09:02:41.420Z,87.87
2023-05-01T09:03:41.370Z,87.04
2023-05-01T09:04:41.355Z,87.25
2023-05-01T09:05:41.359Z,87.04
2023-05-01T09:06:41.387Z,87.66
2023-05-01T09:07:41.330Z,87.29
2023-05-01T09:08:41.306Z,88.32
2023-05-01T09:09:41.280Z,89.15
2023-05-01T09:10:41.270Z,87.49
2023-05-01T09:11:41.979Z,86.57
2023-05-01T09:12:41.247Z,86.52
2023-05-01T09:13:41.251Z,87.15
2023-05-01T09:14:41.255Z,86.11
2023-05-01T09:15:41.223Z,86.83
2023-05-01T09:16:41.248Z,87.87
2023-05-01T09:17:41.317Z,87.93
2023-05-01T09:18:41.190Z,88.70
2023-05-01T09:19:41.192Z,87.04
2023-05-01T09:20:41.176Z,86.42
2023-05-01T09:21:41.159Z,86.83
2023-05-01T09:22:41.155Z,87.04
2023-05-01T09:23:41.170Z,86.52
2023-05-01T09:24:41.151Z,86.32
2023-05-01T09:25:41.134Z,85.91
2023-05-01T09:26:41.114Z,85.45
2023-05-01T09:27:41.102Z,86.38
2023-05-01T09:28:41.119Z,87.10
2023-05-01T09:29:41.186Z,88.55
2023-05-01T09:30:41.100Z,87.21
2023-05-01T09:31:41.121Z,87.31
2023-05-01T09:32:42.694Z,87.73
2023-05-01T09:33:41.050Z,89.07
2023-05-01T09:34:41.049Z,87.93
2023-05-01T09:35:41.057Z,88.04
2023-05-01T09:36:41.020Z,86.94
2023-05-01T09:37:41.018Z,88.49
2023-05-01T09:38:40.991Z,87.56
2023-05-01T09:39:40.987Z,86.73
2023-05-01T09:40:40.987Z,87.66
2023-05-01T09:41:41.001Z,88.28
2023-05-01T09:42:40.966Z,88.90
2023-05-01T09:43:40.955Z,88.18
2023-05-01T09:44:40.937Z,89.15
2023-05-01T09:45:40.939Z,88.12
2023-05-01T09:46:40.964Z,89.25
2023-05-01T09:47:40.982Z,88.84
2023-05-01T09:48:40.900Z,89.15
2023-05-01T09:49:40.876Z,88.43
2023-05-01T09:50:40.876Z,89.56
2023-05-01T09:51:40.849Z,89.71
2023-05-01T09:52:40.856Z,88.67
2023-05-01T09:53:40.874Z,88.57
2023-05-01T09:54:40.826Z,88.67
2023-05-01T09:55:40.823Z,88.88
2023-05-01T09:56:40.814Z,89.40
2023-05-01T09:57:40.803Z,88.57
2023-05-01T09:58:40.792Z,89.50
2023-05-01T09:59:40.809Z,89.09
2023-05-01T10:00:40.770Z,90.23
2023-05-01T10:01:40.805Z,89.40
2023-05-01T10:02:40.809Z,89.19
2023-05-01T10:03:40.881Z,88.94
2023-05-01T10:04:40.732Z,88.84
2023-05-01T10:05:40.953Z,89.67
2023-05-01T10:06:40.777Z,89.67
2023-05-01T10:07:40.700Z,89.36
2023-05-01T10:08:40.700Z,88.53
2023-05-01T10:09:40.681Z,88.32
2023-05-01T10:10:40.675Z,88.12
2023-05-01T10:11:40.691Z,88.74
2023-05-01T10:12:40.663Z,88.12
2023-05-01T10:13:40.648Z,88.12
2023-05-01T10:14:40.641Z,87.60
2023-05-01T10:15:40.641Z,88.53
2023-05-01T10:16:40.661Z,88.53
2023-05-01T10:17:40.698Z,88.53
2023-05-01T10:18:40.605Z,89.77
2023-05-01T10:19:40.586Z,89.15
2023-05-01T10:20:40.615Z,88.64
2023-05-01T10:21:40.575Z,88.84
2023-05-01T10:22:40.567Z,88.94
2023-05-01T10:23:40.576Z,88.22
2023-05-01T10:24:40.552Z,87.91
2023-05-01T10:25:40.537Z,87.08
2023-05-01T10:26:40.524Z,87.29
2023-05-01T10:27:40.506Z,87.49
2023-05-01T10:28:40.487Z,86.88
2023-05-01T10:29:40.498Z,87.81
2023-05-01T10:30:40.472Z,88.84
2023-05-01T10:31:42.457Z,88.53
2023-05-01T10:32:40.471Z,89.04
2023-05-01T10:33:40.461Z,88.32
2023-05-01T10:34:40.427Z,88.43
2023-05-01T10:35:40.498Z,88.74
2023-05-01T10:36:40.408Z,88.94
2023-05-01T10:37:40.393Z,87.49
2023-05-01T10:38:40.396Z,87.39
2023-05-01T10:39:40.379Z,88.12
2023-05-01T10:40:40.497Z,88.80
2023-05-01T10:41:40.392Z,87.76
2023-05-01T10:42:40.346Z,87.87
2023-05-01T10:43:40.340Z,87.97
2023-05-01T10:44:40.324Z,88.39
2023-05-01T10:45:40.311Z,86.63
2023-05-01T10:46:41.264Z,86.63
2023-05-01T10:47:40.333Z,86.83
2023-05-01T10:48:40.297Z,87.04
2023-05-01T10:49:40.275Z,87.46
2023-05-01T10:50:40.272Z,86.11
2023-05-01T10:51:40.261Z,85.02
2023-05-01T10:52:40.250Z,85.57
2023-05-01T10:53:40.265Z,85.88
2023-05-01T10:54:40.228Z,86.91
2023-05-01T10:55:40.221Z,87.43
2023-05-01T10:56:40.210Z,88.36
2023-05-01T10:57:40.206Z,87.95
2023-05-01T10:58:40.195Z,87.54
2023-05-01T10:59:40.198Z,86.91
2023-05-01T11:00:40.171Z,87.02
2023-05-01T11:01:40.283Z,87.64
2023-05-01T11:02:40.209Z,87.23
2023-05-01T11:03:40.137Z,87.54
2023-05-01T11:04:40.140Z,88.57
2023-05-01T11:05:40.246Z,87.74
2023-05-01T11:06:40.256Z,87.43
2023-05-01T11:07:40.103Z,87.54
2023-05-01T11:08:40.089Z,87.33
2023-05-01T11:09:40.110Z,87.43
2023-05-01T11:10:40.095Z,87.82
2023-05-01T11:11:40.084Z,88.48
2023-05-01T11:12:40.039Z,88.79
2023-05-01T11:13:40.070Z,89.46
2023-05-01T11:14:40.021Z,90.23
2023-05-01T11:15:40.017Z,90.23
2023-05-01T11:16:40.127Z,90.54
2023-05-01T11:17:40.139Z,90.75
2023-05-01T11:18:39.974Z,90.75
2023-05-01T11:19:39.979Z,91.78
2023-05-01T11:20:39.954Z,91.27
2023-05-01T11:21:39.953Z,91.16
2023-05-01T11:22:39.955Z,92.10
2023-05-01T11:23:40.263Z,91.68
2023-05-01T11:24:39.918Z,91.89
2023-05-01T11:25:39.905Z,92.82
2023-05-01T11:26:39.936Z,90.54
2023-05-01T11:27:39.896Z,91.06
2023-05-01T11:28:39.891Z,90.85
2023-05-01T11:29:39.907Z,90.44
2023-05-01T11:30:39.876Z,89.67
2023-05-01T11:31:39.927Z,89.25
2023-05-01T11:32:39.834Z,91.08
2023-05-01T11:33:39.834Z,92.36
2023-05-01T11:34:39.830Z,91.53
2023-05-01T11:35:39.846Z,91.02
2023-05-01T11:36:39.808Z,90.87
2023-05-01T11:37:39.800Z,90.04
2023-05-01T11:38:39.781Z,90.04
2023-05-01T11:39:39.772Z,91.80
2023-05-01T11:40:39.756Z,91.22
2023-05-01T11:41:39.794Z,91.33
2023-05-01T11:42:39.785Z,91.22
2023-05-01T11:43:39.752Z,90.45
2023-05-01T11:44:39.725Z,90.66
2023-05-01T11:45:39.782Z,90.56
2023-05-01T11:46:39.695Z,90.20
2023-05-01T11:47:39.784Z,90.10
2023-05-01T11:48:39.671Z,89.48
2023-05-01T11:49:39.663Z,89.38
2023-05-01T11:50:39.650Z,89.13
2023-05-01T11:51:39.648Z,89.13
2023-05-01T11:52:39.627Z,89.34
2023-05-01T11:53:39.640Z,89.13
2023-05-01T11:54:39.608Z,89.03
2023-05-01T11:55:39.608Z,89.13
2023-05-01T11:56:39.592Z,89.23
2023-05-01T11:57:39.581Z,88.61
2023-05-01T11:58:39.581Z,88.88
2023-05-01T11:59:39.588Z,90.02
2023-05-01T12:00:39.591Z,89.81
2023-05-01T12:01:39.543Z,88.92
2023-05-01T12:02:39.624Z,90.37
2023-05-01T12:03:39.573Z,90.06
2023-05-01T12:04:39.572Z,91.09
2023-05-01T12:05:39.546Z,93.00
2023-05-01T12:06:39.506Z,91.86
2023-05-01T12:07:39.493Z,90.72
2023-05-01T12:08:39.485Z,93.21
2023-05-01T12:09:39.470Z,91.76
2023-05-01T12:10:39.458Z,93.21
2023-05-01T12:11:39.468Z,92.43
2023-05-01T12:12:39.424Z,93.10
2023-05-01T12:13:39.428Z,93.52
2023-05-01T12:14:39.423Z,91.97
2023-05-01T12:15:39.406Z,93.93
2023-05-01T12:16:39.449Z,93.21
2023-05-01T12:17:39.433Z,93.73
2023-05-01T12:18:39.389Z,92.90
2023-05-01T12:19:39.367Z,92.28
2023-05-01T12:20:39.355Z,94.24
2023-05-01T12:21:39.344Z,96.21
2023-05-01T12:22:39.325Z,95.07
2023-05-01T12:23:39.383Z,93.83
2023-05-01T12:24:39.320Z,94.45
2023-05-01T12:25:39.313Z,93.83
2023-05-01T12:26:39.280Z,94.14
2023-05-01T12:27:39.272Z,96.83
2023-05-01T12:28:39.272Z,97.91
2023-05-01T12:29:39.289Z,97.29
2023-05-01T12:30:39.237Z,97.60
2023-05-01T12:31:39.288Z,97.34
2023-05-01T12:32:39.276Z,96.57
2023-05-01T12:33:39.231Z,95.95
2023-05-01T12:34:39.201Z,98.38
2023-05-01T12:35:39.276Z,98.69
2023-05-01T12:36:39.184Z,98.90
2023-05-01T12:37:39.169Z,98.90
2023-05-01T12:38:39.178Z,98.83
2023-05-01T12:39:39.147Z,99.56
2023-05-01T12:40:39.131Z,99.99
2023-05-01T12:41:39.174Z,99.99
2023-05-01T12:42:39.124Z,99.99
2023-05-01T12:43:39.112Z,99.99
2023-05-01T12:44:39.109Z,99.98
2023-05-01T12:45:39.093Z,98.69
2023-05-01T12:46:39.134Z,97.75
2023-05-01T12:47:39.121Z,98.38
2023-05-01T12:48:39.081Z,98.07
2023-05-01T12:49:39.065Z,97.60
2023-05-01T12:50:39.049Z,96.47
2023-05-01T12:51:39.037Z,96.57
2023-05-01T12:52:39.022Z,95.95